createdAt,value
2023-02-14T00:01:00.729Z,2.98
2023-02-14T00:03:32.130Z,2.97
2023-02-14T00:06:07.561Z,2.96
2023-02-14T00:08:38.521Z,2.95
2023-02-14T00:11:09.942Z,2.95
2023-02-14T00:14:00.879Z,2.95
2023-02-14T00:16:31.957Z,2.92
2023-02-14T00:19:05.910Z,2.88
2023-02-14T00:21:37.573Z,2.79
2023-02-14T00:24:09.375Z,2.75
2023-02-14T00:26:40.335Z,2.73
2023-02-14T00:29:11.880Z,2.73
2023-02-14T00:31:42.898Z,2.73
2023-02-14T00:34:13.819Z,2.75
2023-02-14T00:36:44.645Z,2.76
2023-02-14T00:39:15.702Z,2.76
2023-02-14T00:41:46.483Z,2.76
2023-02-14T00:44:17.344Z,2.75
2023-02-14T00:46:48.130Z,2.75
2023-02-14T00:49:19.261Z,2.72
2023-02-14T00:51:50.020Z,2.68
2023-02-14T00:54:20.791Z,2.69
2023-02-14T00:56:52.102Z,2.71
2023-02-14T00:59:22.966Z,2.73
2023-02-14T01:01:53.747Z,2.74
2023-02-14T01:04:24.592Z,2.73
2023-02-14T01:06:56.740Z,2.68
2023-02-14T01:09:27.691Z,2.60
2023-02-14T01:11:58.570Z,2.56
2023-02-14T01:14:29.896Z,2.55
2023-02-14T01:17:00.973Z,2.56
2023-02-14T01:19:31.868Z,2.58
2023-02-14T01:22:02.553Z,2.60
2023-02-14T01:24:33.343Z,2.60
2023-02-14T01:27:04.191Z,2.59
2023-02-14T01:29:34.957Z,2.58
2023-02-14T01:32:06.061Z,2.56
2023-02-14T01:34:37.113Z,2.54
2023-02-14T01:37:07.995Z,2.51
2023-02-14T01:39:38.767Z,2.50
2023-02-14T01:42:11.435Z,2.49
2023-02-14T01:44:59.054Z,2.49
2023-02-14T01:47:30.636Z,2.50
2023-02-14T01:50:03.093Z,2.49
2023-02-14T01:52:34.821Z,2.48
2023-02-14T01:55:06.550Z,2.46
2023-02-14T01:57:38.727Z,2.44
2023-02-14T02:00:28.115Z,2.43
2023-02-14T02:02:58.996Z,2.44
2023-02-14T02:05:29.924Z,2.42
2023-02-14T02:08:00.828Z,2.42
2023-02-14T02:10:31.798Z,2.41
2023-02-14T02:13:03.575Z,2.38
2023-02-14T02:15:35.919Z,2.35
2023-02-14T02:18:08.084Z,2.26
2023-02-14T02:20:58.475Z,2.19
2023-02-14T02:23:49.035Z,2.17
2023-02-14T02:26:35.000Z,2.13
2023-02-14T02:29:13.208Z,2.07
2023-02-14T02:31:53.153Z,2.00
2023-02-14T02:34:41.688Z,2.00
2023-02-14T02:37:24.470Z,2.00
2023-02-14T02:40:04.909Z,2.00
2023-02-14T02:42:37.370Z,2.00
2023-02-14T02:45:12.035Z,2.00
2023-02-14T02:47:44.003Z,1.96
2023-02-14T02:50:37.249Z,1.93
2023-02-14T02:53:08.921Z,1.93
2023-02-14T02:55:59.662Z,1.92
2023-02-14T02:58:31.575Z,1.93
2023-02-14T03:01:05.207Z,1.93
2023-02-14T03:03:53.648Z,1.91
2023-02-14T03:06:24.548Z,1.90
2023-02-14T03:08:55.864Z,1.91
2023-02-14T03:11:26.779Z,1.96
2023-02-14T03:14:07.337Z,2.01
2023-02-14T03:16:54.448Z,2.07
2023-02-14T03:19:31.404Z,2.13
2023-02-14T03:22:03.097Z,2.17
2023-02-14T03:24:36.752Z,2.20
2023-02-14T03:27:08.187Z,2.19
2023-02-14T03:29:45.401Z,2.20
2023-02-14T03:32:17.650Z,2.22
2023-02-14T03:34:49.944Z,2.20
2023-02-14T03:37:21.929Z,2.15
2023-02-14T03:39:54.454Z,2.12
2023-02-14T03:42:26.256Z,2.09
2023-02-14T03:44:58.450Z,2.04
2023-02-14T03:47:31.155Z,2.00
2023-02-14T03:50:02.933Z,1.96
2023-02-14T03:52:33.818Z,1.93
2023-02-14T03:55:05.229Z,1.92
2023-02-14T03:57:37.139Z,1.92
2023-02-14T04:00:09.174Z,1.89
2023-02-14T04:02:40.765Z,1.86
2023-02-14T04:05:13.764Z,1.83
2023-02-14T04:07:49.129Z,1.81
2023-02-14T04:10:20.573Z,1.75
2023-02-14T04:12:51.447Z,1.70
2023-02-14T04:15:22.453Z,1.69
2023-02-14T04:18:10.898Z,1.66
2023-02-14T04:20:41.674Z,1.59
2023-02-14T04:23:12.758Z,1.55
2023-02-14T04:25:45.758Z,1.51
2023-02-14T04:28:16.768Z,1.46
2023-02-14T04:30:47.831Z,1.45
2023-02-14T04:33:18.759Z,1.45
2023-02-14T04:35:50.453Z,1.42
2023-02-14T04:38:21.457Z,1.38
2023-02-14T04:40:52.487Z,1.33
2023-02-14T04:43:23.409Z,1.33
2023-02-14T04:45:54.214Z,1.34
2023-02-14T04:48:25.383Z,1.34
2023-02-14T04:50:56.350Z,1.32
2023-02-14T04:53:27.230Z,1.30
2023-02-14T04:55:58.026Z,1.28
2023-02-14T04:58:29.096Z,1.27
2023-02-14T05:01:00.306Z,1.27
2023-02-14T05:03:31.748Z,1.25
2023-02-14T05:06:02.709Z,1.24
2023-02-14T05:08:33.672Z,1.21
2023-02-14T05:11:04.673Z,1.17
2023-02-14T05:13:35.696Z,1.14
2023-02-14T05:16:09.788Z,1.06
2023-02-14T05:18:40.853Z,1.00
2023-02-14T05:21:11.746Z,0.91
2023-02-14T05:23:42.583Z,0.83
2023-02-14T05:26:13.661Z,0.79
2023-02-14T05:28:44.456Z,0.80
2023-02-14T05:31:15.493Z,0.81
2023-02-14T05:33:46.385Z,0.81
2023-02-14T05:36:17.386Z,0.84
2023-02-14T05:38:48.625Z,0.87
2023-02-14T05:41:19.694Z,0.90
2023-02-14T05:43:50.595Z,0.90
2023-02-14T05:46:21.472Z,0.93
2023-02-14T05:48:52.320Z,0.95
2023-02-14T05:51:23.369Z,0.95
2023-02-14T05:53:54.295Z,0.97
2023-02-14T05:56:25.266Z,1.03
2023-02-14T05:58:56.178Z,1.05
2023-02-14T06:01:27.282Z,1.08
2023-02-14T06:03:58.145Z,1.12
2023-02-14T06:06:28.870Z,1.14
2023-02-14T06:08:59.723Z,1.16
2023-02-14T06:11:30.689Z,1.18
2023-02-14T06:14:01.572Z,1.19
2023-02-14T06:16:32.541Z,1.20
2023-02-14T06:19:03.308Z,1.19
2023-02-14T06:21:34.175Z,1.19
2023-02-14T06:24:05.139Z,1.21
2023-02-14T06:26:36.328Z,1.23
2023-02-14T06:29:07.155Z,1.25
2023-02-14T06:31:38.070Z,1.25
2023-02-14T06:34:09.223Z,1.22
2023-02-14T06:36:39.998Z,1.22
2023-02-14T06:39:10.842Z,1.25
2023-02-14T06:41:41.586Z,1.28
2023-02-14T06:44:12.458Z,1.31
2023-02-14T06:46:43.432Z,1.36
2023-02-14T06:49:14.301Z,1.43
2023-02-14T06:51:45.271Z,1.53
2023-02-14T06:54:16.514Z,1.64
2023-02-14T06:56:47.510Z,1.75
2023-02-14T06:59:18.434Z,1.87
2023-02-14T07:01:49.415Z,1.98
2023-02-14T07:04:20.319Z,2.06
2023-02-14T07:06:51.209Z,2.14
2023-02-14T07:09:21.916Z,2.23
2023-02-14T07:11:52.725Z,2.30
2023-02-14T07:14:23.621Z,2.37
2023-02-14T07:16:54.474Z,2.42
2023-02-14T07:19:25.280Z,2.45
2023-02-14T07:21:56.139Z,2.48
2023-02-14T07:24:38.823Z,2.52
2023-02-14T07:27:09.748Z,2.57
2023-02-14T07:29:40.615Z,2.64
2023-02-14T07:32:11.482Z,2.69
2023-02-14T07:34:42.414Z,2.72
2023-02-14T07:37:13.199Z,2.77
2023-02-14T07:39:44.054Z,2.83
2023-02-14T07:42:14.992Z,2.90
2023-02-14T07:44:48.202Z,2.96
2023-02-14T07:47:19.211Z,3.03
2023-02-14T07:49:50.111Z,3.09
2023-02-14T07:52:21.128Z,3.18
2023-02-14T07:54:52.129Z,3.26
2023-02-14T07:57:23.138Z,3.33
2023-02-14T07:59:54.033Z,3.42
2023-02-14T08:02:24.835Z,3.50
2023-02-14T08:04:55.712Z,3.59
2023-02-14T08:07:26.684Z,3.68
2023-02-14T08:09:57.591Z,3.76
2023-02-14T08:12:45.927Z,3.86
2023-02-14T08:15:34.467Z,3.96
2023-02-14T08:18:05.463Z,4.05
2023-02-14T08:20:36.494Z,4.13
2023-02-14T08:23:07.325Z,4.22
2023-02-14T08:25:38.326Z,4.30
2023-02-14T08:28:09.970Z,4.37
2023-02-14T08:30:41.378Z,4.45
2023-02-14T08:33:12.509Z,4.53
2023-02-14T08:35:43.326Z,4.60
2023-02-14T08:38:14.151Z,4.67
2023-02-14T08:40:44.842Z,4.73
2023-02-14T08:43:15.803Z,4.80
2023-02-14T08:45:46.535Z,4.87
2023-02-14T08:48:17.315Z,4.94
2023-02-14T08:50:48.076Z,4.99
2023-02-14T08:53:18.885Z,5.04
2023-02-14T08:55:50.091Z,5.07
2023-02-14T08:58:21.011Z,5.10
2023-02-14T09:00:51.937Z,5.15
2023-02-14T09:03:22.739Z,5.20
2023-02-14T09:05:53.482Z,5.26
2023-02-14T09:08:24.990Z,5.29
2023-02-14T09:10:55.805Z,5.34
2023-02-14T09:13:26.694Z,5.42
2023-02-14T09:15:57.460Z,5.52
2023-02-14T09:18:28.543Z,5.59
2023-02-14T09:20:59.747Z,5.68
2023-02-14T09:23:30.765Z,5.76
2023-02-14T09:26:03.721Z,5.85
2023-02-14T09:28:34.594Z,5.94
2023-02-14T09:31:11.176Z,6.01
2023-02-14T09:33:42.112Z,6.04
2023-02-14T09:36:22.042Z,6.11
2023-02-14T09:38:52.923Z,6.20
2023-02-14T09:41:33.292Z,6.28
2023-02-14T09:44:04.469Z,6.39
2023-02-14T09:46:36.411Z,6.50
2023-02-14T09:49:09.630Z,6.62
2023-02-14T09:51:40.490Z,6.74
2023-02-14T09:54:13.343Z,6.88
2023-02-14T09:56:51.410Z,7.02
2023-02-14T09:59:24.210Z,7.24
2023-02-14T10:01:55.547Z,7.54
2023-02-14T10:04:28.172Z,7.87
2023-02-14T10:07:00.115Z,8.28
2023-02-14T10:09:35.482Z,8.73
2023-02-14T10:12:06.355Z,9.11
2023-02-14T10:14:41.051Z,9.46
2023-02-14T10:17:14.938Z,9.89
2023-02-14T10:19:46.189Z,10.29
2023-02-14T10:22:17.605Z,10.65
2023-02-14T10:24:49.473Z,10.96
2023-02-14T10:27:24.692Z,11.37
2023-02-14T10:29:55.532Z,11.78
2023-02-14T10:32:27.481Z,11.99
2023-02-14T10:35:01.403Z,12.31
2023-02-14T10:37:46.235Z,12.66
2023-02-14T10:40:33.159Z,12.99
2023-02-14T10:43:05.978Z,13.20
2023-02-14T10:45:38.221Z,13.29
2023-02-14T10:48:10.268Z,13.49
2023-02-14T10:50:42.873Z,13.53
2023-02-14T10:53:15.891Z,13.59
2023-02-14T10:55:48.086Z,13.79
2023-02-14T10:58:19.370Z,13.96
2023-02-14T11:00:53.733Z,14.21
2023-02-14T11:03:24.439Z,14.39
2023-02-14T11:05:55.293Z,14.44
2023-02-14T11:08:27.954Z,14.42
2023-02-14T11:11:00.839Z,14.37
2023-02-14T11:13:36.495Z,14.30
2023-02-14T11:16:09.044Z,14.44
2023-02-14T11:18:41.061Z,14.55
2023-02-14T11:21:12.907Z,14.52
2023-02-14T11:23:44.278Z,14.54
2023-02-14T11:26:18.152Z,14.54
2023-02-14T11:28:50.776Z,14.53
2023-02-14T11:31:28.626Z,14.50
2023-02-14T11:33:59.525Z,14.46
2023-02-14T11:36:30.425Z,14.45
2023-02-14T11:39:04.300Z,14.56
2023-02-14T11:41:48.588Z,14.71
2023-02-14T11:44:22.878Z,14.88
2023-02-14T11:46:54.493Z,14.90
2023-02-14T11:49:28.612Z,15.11
2023-02-14T11:52:00.078Z,15.39
2023-02-14T11:54:36.064Z,15.40
2023-02-14T11:57:08.158Z,15.37
2023-02-14T11:59:40.199Z,15.25
2023-02-14T12:02:16.328Z,15.32
2023-02-14T12:04:47.361Z,15.27
2023-02-14T12:07:25.924Z,15.09
2023-02-14T12:10:15.829Z,15.12
2023-02-14T12:12:51.755Z,15.53
2023-02-14T12:15:35.837Z,15.75
2023-02-14T12:18:18.575Z,15.60
2023-02-14T12:20:51.239Z,15.38
2023-02-14T12:23:24.076Z,15.44
2023-02-14T12:25:56.262Z,15.55
2023-02-14T12:28:30.924Z,15.42
2023-02-14T12:31:02.199Z,15.17
2023-02-14T12:33:33.315Z,14.89
2023-02-14T12:36:05.469Z,14.84
2023-02-14T12:38:40.660Z,14.92
2023-02-14T12:41:29.570Z,14.92
2023-02-14T12:44:00.631Z,15.01
2023-02-14T12:46:44.086Z,14.85
2023-02-14T12:49:18.345Z,14.66
2023-02-14T12:51:51.490Z,14.63
2023-02-14T12:54:32.373Z,14.26
2023-02-14T12:57:04.802Z,13.93
2023-02-14T12:59:38.760Z,13.77
2023-02-14T13:02:32.517Z,13.86
2023-02-14T13:05:04.185Z,14.17
2023-02-14T13:07:42.119Z,14.24
2023-02-14T13:10:23.322Z,13.94
2023-02-14T13:12:55.834Z,13.77
2023-02-14T13:15:29.674Z,13.75
2023-02-14T13:18:02.813Z,13.85
2023-02-14T13:20:44.151Z,13.67
2023-02-14T13:23:16.017Z,13.57
2023-02-14T13:25:50.083Z,13.39
2023-02-14T13:28:21.127Z,13.35
2023-02-14T13:30:51.946Z,13.29
2023-02-14T13:33:28.301Z,13.15
2023-02-14T13:36:00.393Z,13.05
2023-02-14T13:38:32.407Z,12.91
2023-02-14T13:41:03.519Z,12.76
2023-02-14T13:43:51.337Z,12.58
2023-02-14T13:46:23.406Z,12.58
2023-02-14T13:49:01.025Z,12.53
2023-02-14T13:51:48.064Z,12.46
2023-02-14T13:54:32.575Z,12.44
2023-02-14T13:57:04.126Z,12.34
2023-02-14T13:59:35.280Z,12.30
2023-02-14T14:02:22.771Z,12.23
2023-02-14T14:04:53.624Z,11.98
2023-02-14T14:07:27.225Z,11.81
2023-02-14T14:09:59.498Z,11.76
2023-02-14T14:12:39.978Z,11.65
2023-02-14T14:15:18.131Z,11.50
2023-02-14T14:18:12.851Z,11.42
2023-02-14T14:20:48.011Z,11.25
2023-02-14T14:23:30.805Z,11.09
2023-02-14T14:26:02.001Z,10.95
2023-02-14T14:28:33.900Z,10.69
2023-02-14T14:31:04.647Z,10.45
2023-02-14T14:33:37.847Z,10.25
2023-02-14T14:36:11.608Z,10.17
2023-02-14T14:38:49.472Z,10.05
2023-02-14T14:41:20.132Z,9.98
2023-02-14T14:43:50.933Z,9.94
2023-02-14T14:46:21.657Z,9.80
2023-02-14T14:48:54.574Z,9.69
2023-02-14T14:51:26.419Z,9.66
2023-02-14T14:53:57.711Z,9.60
2023-02-14T14:56:50.543Z,9.61
2023-02-14T14:59:27.621Z,9.53
2023-02-14T15:01:58.400Z,9.46
2023-02-14T15:04:30.072Z,9.32
2023-02-14T15:07:17.783Z,9.20
2023-02-14T15:09:48.700Z,9.13
2023-02-14T15:12:38.665Z,9.03
2023-02-14T15:15:11.494Z,8.95
2023-02-14T15:17:42.724Z,8.87
2023-02-14T15:20:15.507Z,8.82
2023-02-14T15:22:47.262Z,8.75
2023-02-14T15:25:19.984Z,8.70
2023-02-14T15:27:50.995Z,8.63
2023-02-14T15:30:29.367Z,8.58
2023-02-14T15:33:00.315Z,8.57
2023-02-14T15:35:31.799Z,8.50
2023-02-14T15:38:04.116Z,8.40
2023-02-14T15:40:35.538Z,8.34
2023-02-14T15:43:16.420Z,8.28
2023-02-14T15:45:47.290Z,8.23
2023-02-14T15:48:18.878Z,8.23
2023-02-14T15:50:50.373Z,8.17
2023-02-14T15:53:29.582Z,8.10
2023-02-14T15:56:04.852Z,8.10
2023-02-14T15:58:36.262Z,8.12
2023-02-14T16:01:07.146Z,8.11
2023-02-14T16:03:38.956Z,8.10
2023-02-14T16:06:17.076Z,8.07
2023-02-14T16:08:55.316Z,8.11
2023-02-14T16:11:29.992Z,8.13
2023-02-14T16:14:00.790Z,8.15
2023-02-14T16:16:31.546Z,8.17
2023-02-14T16:19:04.291Z,8.19
2023-02-14T16:21:34.991Z,8.22
2023-02-14T16:24:15.907Z,8.25
2023-02-14T16:26:46.907Z,8.27
2023-02-14T16:29:19.658Z,8.28
2023-02-14T16:32:15.837Z,8.29
2023-02-14T16:34:41.837Z,8.29
2023-02-14T16:37:19.586Z,8.30
2023-02-14T16:39:50.657Z,8.28
2023-02-14T16:42:21.488Z,8.26
2023-02-14T16:44:52.422Z,8.26
2023-02-14T16:47:23.494Z,8.26
2023-02-14T16:49:54.445Z,8.24
2023-02-14T16:52:26.258Z,8.22
2023-02-14T16:54:57.099Z,8.20
2023-02-14T16:57:28.740Z,8.14
2023-02-14T16:59:59.679Z,8.09
2023-02-14T17:02:30.903Z,8.02
2023-02-14T17:05:02.048Z,7.97
2023-02-14T17:07:33.092Z,7.94
2023-02-14T17:10:04.848Z,7.90
2023-02-14T17:12:36.943Z,7.86
2023-02-14T17:15:09.830Z,7.84
2023-02-14T17:17:40.804Z,7.88
2023-02-14T17:20:12.469Z,7.89
2023-02-14T17:23:28.159Z,7.91
2023-02-14T17:26:02.101Z,7.92
2023-02-14T17:28:33.065Z,7.94
2023-02-14T17:31:04.526Z,7.95
2023-02-14T17:33:35.829Z,7.96
2023-02-14T17:36:08.181Z,7.94
2023-02-14T17:38:40.232Z,7.88
2023-02-14T17:41:15.046Z,7.85
2023-02-14T17:43:46.123Z,7.82
2023-02-14T17:46:18.804Z,7.77
2023-02-14T17:48:49.984Z,7.70
2023-02-14T17:51:21.015Z,7.65
2023-02-14T17:53:52.255Z,7.60
2023-02-14T17:56:23.784Z,7.57
2023-02-14T17:58:55.392Z,7.54
2023-02-14T18:01:27.149Z,7.49
2023-02-14T18:03:58.254Z,7.43
2023-02-14T18:06:29.215Z,7.39
2023-02-14T18:09:00.385Z,7.34
2023-02-14T18:11:31.338Z,7.23
2023-02-14T18:14:03.834Z,7.17
2023-02-14T18:16:34.758Z,7.16
2023-02-14T18:19:05.882Z,7.14
2023-02-14T18:21:37.222Z,7.11
2023-02-14T18:24:08.597Z,7.08
2023-02-14T18:26:40.959Z,7.04
2023-02-14T18:29:12.914Z,7.01
2023-02-14T18:31:44.299Z,6.97
2023-02-14T18:34:15.366Z,6.90
2023-02-14T18:36:46.149Z,6.76
2023-02-14T18:39:17.391Z,6.52
2023-02-14T18:41:48.194Z,6.34
2023-02-14T18:44:20.889Z,6.32
2023-02-14T18:46:53.978Z,6.36
2023-02-14T18:49:25.006Z,6.40
2023-02-14T18:51:57.429Z,6.43
2023-02-14T18:54:28.357Z,6.44
2023-02-14T18:56:59.275Z,6.44
2023-02-14T18:59:30.172Z,6.45
2023-02-14T19:02:01.079Z,6.45
2023-02-14T19:04:32.351Z,6.41
2023-02-14T19:07:04.696Z,6.30
2023-02-14T19:09:39.955Z,6.27
2023-02-14T19:12:11.221Z,6.26
2023-02-14T19:14:43.191Z,6.25
2023-02-14T19:17:16.960Z,6.23
2023-02-14T19:19:48.330Z,6.15
2023-02-14T19:22:19.293Z,6.10
2023-02-14T19:24:50.655Z,6.08
2023-02-14T19:27:21.929Z,6.07
2023-02-14T19:29:52.913Z,6.06
2023-02-14T19:32:23.816Z,6.05
2023-02-14T19:34:54.619Z,6.05
2023-02-14T19:37:26.790Z,6.04
2023-02-14T19:39:57.565Z,6.03
2023-02-14T19:42:28.374Z,6.00
2023-02-14T19:44:59.248Z,5.95
2023-02-14T19:47:46.005Z,5.87
2023-02-14T19:50:22.054Z,5.82
2023-02-14T19:52:52.970Z,5.75
2023-02-14T19:55:28.329Z,5.75
2023-02-14T19:57:59.129Z,5.79
2023-02-14T20:00:34.528Z,5.82
2023-02-14T20:03:06.243Z,5.84
2023-02-14T20:05:37.915Z,5.87
2023-02-14T20:08:14.302Z,5.89
2023-02-14T20:10:45.225Z,5.90
2023-02-14T20:13:15.842Z,5.91
2023-02-14T20:15:48.835Z,5.88
2023-02-14T20:18:21.737Z,5.75
2023-02-14T20:21:07.007Z,5.63
2023-02-14T20:23:39.675Z,5.57
2023-02-14T20:26:13.896Z,5.58
2023-02-14T20:28:48.860Z,5.62
2023-02-14T20:31:22.240Z,5.66
2023-02-14T20:34:03.734Z,5.70
2023-02-14T20:36:34.609Z,5.75
2023-02-14T20:39:09.109Z,5.79
2023-02-14T20:41:40.007Z,5.83
2023-02-14T20:44:12.045Z,5.85
2023-02-14T20:46:43.009Z,5.87
2023-02-14T20:49:13.738Z,5.89
2023-02-14T20:51:50.382Z,5.91
2023-02-14T20:54:23.129Z,5.93
2023-02-14T20:56:54.122Z,5.94
2023-02-14T20:59:27.292Z,5.97
2023-02-14T21:02:00.241Z,5.98
2023-02-14T21:04:31.344Z,5.98
2023-02-14T21:07:07.688Z,5.98
2023-02-14T21:09:39.077Z,5.96
2023-02-14T21:12:09.982Z,5.93
2023-02-14T21:14:40.763Z,5.91
2023-02-14T21:17:11.531Z,5.88
2023-02-14T21:19:45.437Z,5.87
2023-02-14T21:22:17.025Z,5.87
2023-02-14T21:24:47.967Z,5.85
2023-02-14T21:27:20.953Z,5.82
2023-02-14T21:29:52.040Z,5.79
2023-02-14T21:32:22.974Z,5.76
2023-02-14T21:34:56.767Z,5.74
2023-02-14T21:37:27.588Z,5.72
2023-02-14T21:40:01.661Z,5.71
2023-02-14T21:42:33.356Z,5.66
2023-02-14T21:45:23.482Z,5.64
2023-02-14T21:48:08.129Z,5.60
2023-02-14T21:50:39.565Z,5.58
2023-02-14T21:53:10.523Z,5.58
2023-02-14T21:55:42.934Z,5.58
2023-02-14T21:58:17.178Z,5.58
2023-02-14T22:00:49.456Z,5.58
2023-02-14T22:03:20.345Z,5.59
2023-02-14T22:05:51.361Z,5.59
2023-02-14T22:08:22.124Z,5.56
2023-02-14T22:10:52.951Z,5.55
2023-02-14T22:13:23.788Z,5.53
2023-02-14T22:15:54.738Z,5.52
2023-02-14T22:18:25.710Z,5.52
2023-02-14T22:20:56.490Z,5.53
2023-02-14T22:23:29.006Z,5.48
2023-02-14T22:26:07.970Z,5.43
2023-02-14T22:28:38.801Z,5.40
2023-02-14T22:31:09.708Z,5.38
2023-02-14T22:33:40.537Z,5.35
2023-02-14T22:36:11.558Z,5.34
2023-02-14T22:38:42.444Z,5.34
2023-02-14T22:41:14.107Z,5.32
2023-02-14T22:43:44.984Z,5.25
2023-02-14T22:46:17.153Z,5.20
2023-02-14T22:48:48.117Z,5.19
2023-02-14T22:51:21.737Z,5.17
2023-02-14T22:53:53.221Z,5.12
2023-02-14T22:56:25.158Z,5.10
2023-02-14T22:58:56.694Z,5.09
2023-02-14T23:01:27.717Z,5.10
2023-02-14T23:03:59.225Z,5.07
2023-02-14T23:06:30.602Z,5.04
2023-02-14T23:09:01.620Z,5.05
2023-02-14T23:11:33.012Z,5.05
2023-02-14T23:14:20.959Z,5.06
2023-02-14T23:17:20.987Z,5.05
2023-02-14T23:20:09.306Z,5.01
2023-02-14T23:22:40.550Z,4.96
2023-02-14T23:25:12.106Z,4.95
2023-02-14T23:27:43.837Z,4.92
2023-02-14T23:30:16.038Z,4.90
2023-02-14T23:32:46.892Z,4.87
2023-02-14T23:35:17.744Z,4.83
2023-02-14T23:37:48.545Z,4.80
2023-02-14T23:40:19.315Z,4.75
2023-02-14T23:42:50.066Z,4.72
2023-02-14T23:45:36.254Z,4.69
2023-02-14T23:48:07.266Z,4.65
2023-02-14T23:50:38.409Z,4.62
2023-02-14T23:53:09.304Z,4.61
2023-02-14T23:55:40.269Z,4.56
2023-02-14T23:58:11.305Z,4.44
